sensor_id;sensor_type;location;lat;lon;timestamp;pressure;altitude;pressure_sealevel;temperature;humidity
45941;BME280;31858;46.008;8.978;2023-07-29T00:03:01;94412.59;;;19.39;100.00
45941;BME280;31858;46.008;8.978;2023-07-29T00:13:04;94409.03;;;19.30;100.00
45941;BME280;31858;46.008;8.978;2023-07-29T00:23:05;94397.31;;;19.07;100.00
45941;BME280;31858;46.008;8.978;2023-07-29T00:33:08;94401.84;;;19.10;100.00
45941;BME280;31858;46.008;8.978;2023-07-29T00:43:10;94381.44;;;19.09;100.00
45941;BME280;31858;46.008;8.978;2023-07-29T00:53:13;94363.50;;;19.03;100.00
45941;BME280;31858;46.008;8.978;2023-07-29T01:03:15;94373.59;;;18.86;100.00
45941;BME280;31858;46.008;8.978;2023-07-29T01:13:22;94381.59;;;18.89;100.00
45941;BME280;31858;46.008;8.978;2023-07-29T01:23:29;94385.91;;;18.87;100.00
45941;BME280;31858;46.008;8.978;2023-07-29T01:33:35;94397.03;;;18.89;100.00
45941;BME280;31858;46.008;8.978;2023-07-29T01:43:40;94406.56;;;18.94;100.00
45941;BME280;31858;46.008;8.978;2023-07-29T01:53:44;94381.84;;;18.95;100.00
45941;BME280;31858;46.008;8.978;2023-07-29T02:03:47;94394.13;;;18.83;100.00
45941;BME280;31858;46.008;8.978;2023-07-29T02:13:53;94387.34;;;18.92;100.00
45941;BME280;31858;46.008;8.978;2023-07-29T02:23:56;94369.78;;;18.71;100.00
45941;BME280;31858;46.008;8.978;2023-07-29T02:33:58;94370.44;;;18.75;100.00
45941;BME280;31858;46.008;8.978;2023-07-29T02:44:01;94370.34;;;18.78;100.00
45941;BME280;31858;46.008;8.978;2023-07-29T02:54:03;94358.22;;;18.70;100.00
45941;BME280;31858;46.008;8.978;2023-07-29T03:04:06;94358.22;;;18.70;100.00
45941;BME280;31858;46.008;8.978;2023-07-29T03:14:07;94369.22;;;18.63;100.00
45941;BME280;31858;46.008;8.978;2023-07-29T03:24:10;94378.25;;;18.85;100.00
45941;BME280;31858;46.008;8.978;2023-07-29T03:34:12;94383.78;;;18.66;100.00
45941;BME280;31858;46.008;8.978;2023-07-29T03:44:15;94399.81;;;18.56;100.00
45941;BME280;31858;46.008;8.978;2023-07-29T03:54:17;94399.72;;;18.60;100.00
45941;BME280;31858;46.008;8.978;2023-07-29T04:04:20;94392.41;;;18.61;100.00
45941;BME280;31858;46.008;8.978;2023-07-29T04:14:22;94409.84;;;18.56;100.00
45941;BME280;31858;46.008;8.978;2023-07-29T04:24:25;94378.78;;;18.80;100.00
45941;BME280;31858;46.008;8.978;2023-07-29T04:34:28;94398.56;;;18.61;100.00
45941;BME280;31858;46.008;8.978;2023-07-29T04:44:31;94405.97;;;18.57;100.00
45941;BME280;31858;46.008;8.978;2023-07-29T04:54:32;94426.63;;;18.47;100.00
45941;BME280;31858;46.008;8.978;2023-07-29T05:04:35;94421.31;;;18.60;100.00
45941;BME280;31858;46.008;8.978;2023-07-29T05:14:37;94452.84;;;18.47;100.00
45941;BME280;31858;46.008;8.978;2023-07-29T05:24:40;94442.41;;;18.49;100.00
45941;BME280;31858;46.008;8.978;2023-07-29T05:34:41;94432.63;;;18.55;100.00
45941;BME280;31858;46.008;8.978;2023-07-29T05:44:45;94435.72;;;18.70;100.00
45941;BME280;31858;46.008;8.978;2023-07-29T05:54:46;94438.75;;;18.72;100.00
45941;BME280;31858;46.008;8.978;2023-07-29T06:04:49;94467.91;;;18.93;100.00
45941;BME280;31858;46.008;8.978;2023-07-29T06:14:51;94462.78;;;18.82;100.00
45941;BME280;31858;46.008;8.978;2023-07-29T06:24:54;94464.78;;;18.95;100.00
45941;BME280;31858;46.008;8.978;2023-07-29T06:34:55;94469.00;;;18.96;100.00
45941;BME280;31858;46.008;8.978;2023-07-29T06:44:58;94470.06;;;18.98;100.00
45941;BME280;31858;46.008;8.978;2023-07-29T06:55:00;94479.94;;;19.05;100.00
45941;BME280;31858;46.008;8.978;2023-07-29T07:05:03;94473.41;;;19.18;100.00
45941;BME280;31858;46.008;8.978;2023-07-29T07:15:06;94478.72;;;19.35;100.00
45941;BME280;31858;46.008;8.978;2023-07-29T07:25:09;94489.81;;;19.53;100.00
45941;BME280;31858;46.008;8.978;2023-07-29T07:35:11;94485.06;;;19.70;100.00
45941;BME280;31858;46.008;8.978;2023-07-29T07:45:14;94470.81;;;19.82;100.00
45941;BME280;31858;46.008;8.978;2023-07-29T07:55:15;94446.28;;;19.89;100.00
45941;BME280;31858;46.008;8.978;2023-07-29T08:05:18;94434.03;;;19.84;100.00
45941;BME280;31858;46.008;8.978;2023-07-29T08:15:20;94431.13;;;19.79;100.00
45941;BME280;31858;46.008;8.978;2023-07-29T08:25:23;94445.94;;;19.87;100.00
45941;BME280;31858;46.008;8.978;2023-07-29T08:35:25;94441.19;;;20.04;100.00
45941;BME280;31858;46.008;8.978;2023-07-29T08:45:29;94437.81;;;20.12;100.00
45941;BME280;31858;46.008;8.978;2023-07-29T08:55:32;94439.53;;;20.19;100.00
45941;BME280;31858;46.008;8.978;2023-07-29T09:05:35;94431.19;;;20.26;100.00
45941;BME280;31858;46.008;8.978;2023-07-29T09:15:37;94431.72;;;20.46;100.00
45941;BME280;31858;46.008;8.978;2023-07-29T09:25:40;94437.31;;;20.65;100.00
45941;BME280;31858;46.008;8.978;2023-07-29T09:35:42;94452.81;;;20.86;100.00
45941;BME280;31858;46.008;8.978;2023-07-29T09:45:46;94455.78;;;21.01;100.00
45941;BME280;31858;46.008;8.978;2023-07-29T09:55:48;94454.66;;;21.11;100.00
45941;BME280;31858;46.008;8.978;2023-07-29T10:05:52;94448.31;;;21.27;100.00
45941;BME280;31858;46.008;8.978;2023-07-29T10:15:54;94423.38;;;21.32;100.00
45941;BME280;31858;46.008;8.978;2023-07-29T10:26:03;94413.50;;;21.47;100.00
45941;BME280;31858;46.008;8.978;2023-07-29T10:36:05;94418.81;;;21.81;100.00
45941;BME280;31858;46.008;8.978;2023-07-29T10:46:17;94420.25;;;22.13;100.00
45941;BME280;31858;46.008;8.978;2023-07-29T10:56:26;94416.25;;;22.36;100.00
45941;BME280;31858;46.008;8.978;2023-07-29T11:06:29;94416.56;;;22.48;100.00
45941;BME280;31858;46.008;8.978;2023-07-29T11:16:30;94413.44;;;22.86;100.00
45941;BME280;31858;46.008;8.978;2023-07-29T11:26:36;94406.97;;;23.01;100.00
45941;BME280;31858;46.008;8.978;2023-07-29T11:36:38;94407.84;;;23.17;100.00
45941;BME280;31858;46.008;8.978;2023-07-29T11:46:41;94394.16;;;23.53;100.00
45941;BME280;31858;46.008;8.978;2023-07-29T11:56:43;94380.22;;;23.69;100.00
45941;BME280;31858;46.008;8.978;2023-07-29T12:06:46;94388.69;;;23.71;100.00
45941;BME280;31858;46.008;8.978;2023-07-29T12:16:48;94379.19;;;24.00;100.00
45941;BME280;31858;46.008;8.978;2023-07-29T12:26:53;94363.66;;;23.91;100.00
45941;BME280;31858;46.008;8.978;2023-07-29T12:36:56;94354.81;;;24.05;100.00
45941;BME280;31858;46.008;8.978;2023-07-29T12:47:00;94344.56;;;24.24;100.00
45941;BME280;31858;46.008;8.978;2023-07-29T12:57:03;94339.91;;;24.63;100.00
45941;BME280;31858;46.008;8.978;2023-07-29T13:07:06;94353.84;;;24.95;100.00
45941;BME280;31858;46.008;8.978;2023-07-29T13:17:08;94349.72;;;24.46;100.00
45941;BME280;31858;46.008;8.978;2023-07-29T13:27:10;94349.66;;;24.07;100.00
45941;BME280;31858;46.008;8.978;2023-07-29T13:37:12;94366.25;;;23.86;100.00
45941;BME280;31858;46.008;8.978;2023-07-29T13:47:15;94360.84;;;23.77;100.00
45941;BME280;31858;46.008;8.978;2023-07-29T13:57:17;94349.28;;;23.58;100.00
45941;BME280;31858;46.008;8.978;2023-07-29T14:07:20;94340.22;;;23.52;100.00
45941;BME280;31858;46.008;8.978;2023-07-29T14:17:22;94336.38;;;23.34;100.00
45941;BME280;31858;46.008;8.978;2023-07-29T14:27:24;94314.91;;;23.79;100.00
45941;BME280;31858;46.008;8.978;2023-07-29T14:37:26;94296.50;;;23.97;100.00
45941;BME280;31858;46.008;8.978;2023-07-29T14:47:29;94297.72;;;24.44;100.00
45941;BME280;31858;46.008;8.978;2023-07-29T14:57:34;94310.13;;;24.75;100.00
45941;BME280;31858;46.008;8.978;2023-07-29T15:07:38;94310.91;;;24.90;100.00
45941;BME280;31858;46.008;8.978;2023-07-29T15:17:39;94297.09;;;25.38;100.00
45941;BME280;31858;46.008;8.978;2023-07-29T15:27:42;94299.56;;;25.06;100.00
45941;BME280;31858;46.008;8.978;2023-07-29T15:37:44;94300.06;;;24.51;100.00
45941;BME280;31858;46.008;8.978;2023-07-29T15:47:47;94316.34;;;24.13;100.00
45941;BME280;31858;46.008;8.978;2023-07-29T15:57:49;94306.22;;;23.89;100.00
45941;BME280;31858;46.008;8.978;2023-07-29T16:07:52;94297.06;;;23.78;100.00
45941;BME280;31858;46.008;8.978;2023-07-29T16:17:56;94281.63;;;23.51;100.00
45941;BME280;31858;46.008;8.978;2023-07-29T16:28:01;94251.28;;;23.43;100.00
45941;BME280;31858;46.008;8.978;2023-07-29T16:38:02;94253.84;;;23.47;100.00
45941;BME280;31858;46.008;8.978;2023-07-29T16:48:05;94258.69;;;23.42;100.00
45941;BME280;31858;46.008;8.978;2023-07-29T16:58:07;94234.50;;;23.78;100.00
45941;BME280;31858;46.008;8.978;2023-07-29T17:08:10;94233.50;;;23.66;100.00
45941;BME280;31858;46.008;8.978;2023-07-29T17:18:12;94259.72;;;23.54;100.00
45941;BME280;31858;46.008;8.978;2023-07-29T17:28:15;94255.56;;;23.92;100.00
45941;BME280;31858;46.008;8.978;2023-07-29T17:38:16;94252.44;;;24.08;100.00
45941;BME280;31858;46.008;8.978;2023-07-29T17:48:19;94250.97;;;24.22;100.00
45941;BME280;31858;46.008;8.978;2023-07-29T17:58:21;94252.44;;;24.47;100.00
45941;BME280;31858;46.008;8.978;2023-07-29T18:08:24;94244.09;;;24.50;100.00
45941;BME280;31858;46.008;8.978;2023-07-29T18:18:25;94246.16;;;24.41;100.00
45941;BME280;31858;46.008;8.978;2023-07-29T18:28:28;94234.31;;;24.05;100.00
45941;BME280;31858;46.008;8.978;2023-07-29T18:38:30;94264.59;;;23.74;100.00
45941;BME280;31858;46.008;8.978;2023-07-29T18:48:33;94264.97;;;23.25;100.00
45941;BME280;31858;46.008;8.978;2023-07-29T18:58:35;94255.53;;;23.11;100.00
45941;BME280;31858;46.008;8.978;2023-07-29T19:08:38;94269.47;;;22.76;100.00
45941;BME280;31858;46.008;8.978;2023-07-29T19:18:39;94268.00;;;22.39;100.00
45941;BME280;31858;46.008;8.978;2023-07-29T19:28:42;94276.44;;;22.50;100.00
45941;BME280;31858;46.008;8.978;2023-07-29T19:38:44;94301.47;;;22.18;100.00
45941;BME280;31858;46.008;8.978;2023-07-29T19:48:46;94303.59;;;22.13;100.00
45941;BME280;31858;46.008;8.978;2023-07-29T19:58:51;94287.94;;;22.08;100.00
45941;BME280;31858;46.008;8.978;2023-07-29T20:08:54;94313.25;;;22.05;100.00
45941;BME280;31858;46.008;8.978;2023-07-29T20:18:56;94309.34;;;22.34;100.00
45941;BME280;31858;46.008;8.978;2023-07-29T20:28:59;94310.81;;;21.98;100.00
45941;BME280;31858;46.008;8.978;2023-07-29T20:39:01;94308.50;;;21.78;100.00
45941;BME280;31858;46.008;8.978;2023-07-29T20:49:04;94354.13;;;21.71;100.00
45941;BME280;31858;46.008;8.978;2023-07-29T20:59:06;94356.38;;;21.72;100.00
45941;BME280;31858;46.008;8.978;2023-07-29T21:09:10;94346.53;;;21.57;100.00
45941;BME280;31858;46.008;8.978;2023-07-29T21:19:13;94324.56;;;21.64;100.00
45941;BME280;31858;46.008;8.978;2023-07-29T21:29:16;94332.91;;;21.38;100.00
45941;BME280;31858;46.008;8.978;2023-07-29T21:39:17;94317.13;;;21.15;100.00
45941;BME280;31858;46.008;8.978;2023-07-29T21:49:20;94311.22;;;21.07;100.00
45941;BME280;31858;46.008;8.978;2023-07-29T21:59:22;94313.88;;;20.98;100.00
45941;BME280;31858;46.008;8.978;2023-07-29T22:09:25;94288.66;;;20.79;100.00
45941;BME280;31858;46.008;8.978;2023-07-29T22:19:26;94368.25;;;20.60;100.00
45941;BME280;31858;46.008;8.978;2023-07-29T22:29:29;94353.16;;;20.37;100.00
45941;BME280;31858;46.008;8.978;2023-07-29T22:39:31;94369.09;;;20.23;100.00
45941;BME280;31858;46.008;8.978;2023-07-29T22:49:34;94380.44;;;20.30;100.00
45941;BME280;31858;46.008;8.978;2023-07-29T22:59:36;94367.84;;;20.49;100.00
45941;BME280;31858;46.008;8.978;2023-07-29T23:09:39;94380.56;;;20.27;100.00
45941;BME280;31858;46.008;8.978;2023-07-29T23:19:40;94388.34;;;20.25;100.00
45941;BME280;31858;46.008;8.978;2023-07-29T23:29:43;94365.59;;;20.35;100.00
45941;BME280;31858;46.008;8.978;2023-07-29T23:39:45;94367.28;;;20.07;100.00
45941;BME280;31858;46.008;8.978;2023-07-29T23:49:48;94384.50;;;20.00;100.00
45941;BME280;31858;46.008;8.978;2023-07-29T23:59:49;94387.72;;;20.08;100.00
